This is the latest recevied weather packets stored in our database for station/object KF0FSA. If no packets are shown the sender has not sent any weather packets the latest 10 day(s).
| Time | Temp. | Humidity | Pressure | Rain* | Wind** | Luminosity | Snow |
|---|---|---|---|---|---|---|---|
| 1777826424 | 19.44° C | 37% | 957.7 hPa | 0 mm | - | 771 W/m² | - |
| 1777825824 | 19.44° C | 38% | 957.9 hPa | 0 mm | - | 591 W/m² | - |
| 1777824025 | 18.89° C | 41% | 957.8 hPa | 0 mm | - | 773 W/m² | - |
| 1777823121 | 18.89° C | 40% | 957.8 hPa | 0 mm | - | 652 W/m² | - |
| 1777822645 | 18.33° C | 39% | 957.9 hPa | 0 mm | - | 683 W/m² | - |
| 1777822222 | 18.33° C | 38% | 958 hPa | 0 mm | - | 636 W/m² | - |
| 1777820422 | 17.22° C | 42% | 958 hPa | 0 mm | - | 585 W/m² | - |
| 1777818141 | 15.56° C | 48% | 957.9 hPa | 0 mm | - | 502 W/m² | - |
| 1777817417 | 15.56° C | 49% | 958 hPa | 0 mm | - | 424 W/m² | - |
| 1777817117 | 15.56° C | 50% | 958 hPa | 0 mm | - | 445 W/m² | - |
| 1777815920 | 14.44° C | 52% | 957.7 hPa | 0 mm | - | 362 W/m² | - |
| 1777812909 | 12.22° C | 59% | 957.4 hPa | 0 mm | - | 197 W/m² | - |
| 1777811709 | 11.11° C | 63% | 957.3 hPa | 0 mm | - | 159 W/m² | - |
| 1777811533 | 10.56° C | 63% | 957.3 hPa | 0 mm | - | 149 W/m² | - |
| 1777811109 | 10.56° C | 65% | 957.3 hPa | 0 mm | - | 115 W/m² | - |
| 1777810206 | 10.56° C | 64% | 957.2 hPa | 0 mm | - | 53 W/m² | - |
| 1777809426 | 10° C | 64% | 956.9 hPa | 0 mm | - | 33 W/m² | - |
| 1777805215 | 10.56° C | 64% | 956.1 hPa | 0 mm | - | 0 W/m² | - |
| 1777804314 | 10.56° C | 63% | 956 hPa | 0 mm | - | 0 W/m² | - |
| 1777803290 | 10.56° C | 62% | 955.9 hPa | 0 mm | - | 0 W/m² | - |
| 1777802990 | 10.56° C | 62% | 955.9 hPa | 0 mm | - | 0 W/m² | - |
| 1777802087 | 11.11° C | 61% | 955.8 hPa | 0 mm | - | 0 W/m² | - |
| 1777801911 | 11.11° C | 61% | 955.8 hPa | 0 mm | - | 0 W/m² | - |
| 1777800886 | 11.67° C | 60% | 955.7 hPa | 0 mm | - | 0 W/m² | - |
| 1777800587 | 11.67° C | 60% | 955.6 hPa | 0 mm | - | 0 W/m² | - |
* Rain latest hour (hover to see other rain measurements)
** Current wind speed in m/s (hover to see current wind gust speed)